John Day, OR

7:47 AM PDT on August 25, 2016 (GMT -0700)
Grant County Regional | | Change Station

Elev 3698 ft 44.40 °N, 118.96 °W | Updated 12 minutes ago

Clear
Clear
54 °F
Feels Like 54 °F
N
8
Wind Variable Wind from East

Today
High -- | Low -- °F
--% Chance of Precip.
Yesterday
High -- | Low -- °F
Precip. -- in
Pressure 30.21 in
Visibility 10.0 miles
Clouds Clear
Dew Point 36 °F
Humidity 50%
Rainfall 0.00 in
Snow Depth Not available.
6:11 AM 7:43 PM
Last Quarter, 45% visible
METAR KGCD 251435Z AUTO 09007KT 10SM CLR 13/02 A3021 RMK AO2 T01250023
Pressure 30.21 in
Visibility 10.0 miles
Clouds Clear
Dew Point 36 °F
Humidity 50%
Rainfall 0.00 in
Snow Depth Not available.
6:11 AM 7:43 PM
Last Quarter, 45% visible
METAR KGCD 251435Z AUTO 09007KT 10SM CLR 13/02 A3021 RMK AO2 T01250023

10-Day Weather Forecast

Almanac

Astronomy

Aug. 25, 2016 Rise Set
Actual Time
Civil Twilight
Nautical Twilight
Astronomical Twilight
Moon
Length of Visible Light
Length of Day
Tomorrow will be .
, % of the Moon is Illuminated

Today's Extremes

State Highs State Lows

Community

WunderPhotos

Upload Photos

1,934,850 photos uploaded!

WunderBlog® & News

Nearby

Air Quality

  Air Quality AQ Index Pollutant
Not available.

Snow Depth

Station Depth Elevation

Earthquake Activity

City Distance Mag. Time & Date
Minimum magnitude displayed is 2.5.

Coastal Water Temperatures

Place Temperature

Stations

Nearby Weather Stations

Station Location Temp. Windchill Dew Point Humidity Wind Precip. Elev Updated Type
                   

Watches & Warnings

There are currently no watches in effect.